createdAt,value
2022-12-06T00:01:26.716Z,9.98
2022-12-06T00:03:58.135Z,10.57
2022-12-06T00:06:27.762Z,10.10
2022-12-06T00:08:55.322Z,9.93
2022-12-06T00:11:23.664Z,9.93
2022-12-06T00:14:08.901Z,10.63
2022-12-06T00:16:36.275Z,9.10
2022-12-06T00:19:03.811Z,11.05
2022-12-06T00:21:32.656Z,10.85
2022-12-06T00:24:04.584Z,11.70
2022-12-06T00:26:32.180Z,10.88
2022-12-06T00:29:00.372Z,11.00
2022-12-06T00:31:28.594Z,10.13
2022-12-06T00:33:56.204Z,10.07
2022-12-06T00:36:25.107Z,10.55
2022-12-06T00:38:52.403Z,10.68
2022-12-06T00:41:21.299Z,9.77
2022-12-06T00:43:48.689Z,9.38
2022-12-06T00:46:17.824Z,10.95
2022-12-06T00:48:45.472Z,9.82
2022-12-06T00:51:13.100Z,10.40
2022-12-06T00:53:40.606Z,9.50
2022-12-06T00:56:07.954Z,9.60
2022-12-06T00:58:35.181Z,10.38
2022-12-06T01:01:09.657Z,9.35
2022-12-06T01:03:37.247Z,10.18
2022-12-06T01:06:08.348Z,9.25
2022-12-06T01:08:36.485Z,10.25
2022-12-06T01:11:04.399Z,9.07
2022-12-06T01:13:31.609Z,9.55
2022-12-06T01:15:58.942Z,10.20
2022-12-06T01:18:26.146Z,9.68
2022-12-06T01:20:53.513Z,9.68
2022-12-06T01:23:20.726Z,11.20
2022-12-06T01:25:51.744Z,8.48
2022-12-06T01:28:19.279Z,9.40
2022-12-06T01:30:46.842Z,8.68
2022-12-06T01:33:16.942Z,9.05
2022-12-06T01:35:44.521Z,9.02
2022-12-06T01:38:12.660Z,8.70
2022-12-06T01:40:44.869Z,9.23
2022-12-06T01:43:30.865Z,9.27
2022-12-06T01:45:59.196Z,9.32
2022-12-06T01:48:27.272Z,8.68
2022-12-06T01:50:57.756Z,9.65
2022-12-06T01:53:25.987Z,9.27
2022-12-06T01:55:54.277Z,10.00
2022-12-06T01:58:23.984Z,9.35
2022-12-06T02:00:51.291Z,10.25
2022-12-06T02:03:20.608Z,9.07
2022-12-06T02:05:48.021Z,9.63
2022-12-06T02:08:15.581Z,9.48
2022-12-06T02:10:43.230Z,8.52
2022-12-06T02:13:10.576Z,9.57
2022-12-06T02:15:45.164Z,9.00
2022-12-06T02:18:15.819Z,8.65
2022-12-06T02:20:48.085Z,8.75
2022-12-06T02:23:41.622Z,10.32
2022-12-06T02:26:38.418Z,9.35
2022-12-06T02:29:24.283Z,8.27
2022-12-06T02:31:56.676Z,9.88
2022-12-06T02:34:31.412Z,9.73
2022-12-06T02:37:10.313Z,9.13
2022-12-06T02:39:56.626Z,8.10
2022-12-06T02:42:44.144Z,8.68
2022-12-06T02:45:17.141Z,9.95
2022-12-06T02:47:45.196Z,13.38
2022-12-06T02:50:15.316Z,12.73
2022-12-06T02:52:43.833Z,13.80
2022-12-06T02:55:11.781Z,14.02
2022-12-06T02:57:42.287Z,14.43
2022-12-06T03:00:45.393Z,14.98
2022-12-06T03:03:21.388Z,14.07
2022-12-06T03:05:57.691Z,13.02
2022-12-06T03:08:47.967Z,13.15
2022-12-06T03:11:15.642Z,12.52
2022-12-06T03:13:45.858Z,12.40
2022-12-06T03:16:18.411Z,12.98
2022-12-06T03:18:50.551Z,12.02
2022-12-06T03:21:28.968Z,11.98
2022-12-06T03:23:56.692Z,12.10
2022-12-06T03:26:26.055Z,10.68
2022-12-06T03:28:56.078Z,11.60
2022-12-06T03:31:24.546Z,11.20
2022-12-06T03:33:57.105Z,10.52
2022-12-06T03:36:25.603Z,10.02
2022-12-06T03:38:54.749Z,10.60
2022-12-06T03:41:23.917Z,9.27
2022-12-06T03:43:51.283Z,10.32
2022-12-06T03:46:19.775Z,9.63
2022-12-06T03:49:01.078Z,9.48
2022-12-06T03:51:30.099Z,9.27
2022-12-06T03:53:59.346Z,9.57
2022-12-06T03:56:26.700Z,9.30
2022-12-06T03:58:53.951Z,9.32
2022-12-06T04:01:21.281Z,9.00
2022-12-06T04:03:48.797Z,9.05
2022-12-06T04:06:16.103Z,8.75
2022-12-06T04:08:43.404Z,8.65
2022-12-06T04:11:10.715Z,9.73
2022-12-06T04:13:38.212Z,9.15
2022-12-06T04:16:25.555Z,9.50
2022-12-06T04:18:53.015Z,8.70
2022-12-06T04:21:32.375Z,8.70
2022-12-06T04:23:59.806Z,8.07
2022-12-06T04:26:27.550Z,8.73
2022-12-06T04:29:13.591Z,8.00
2022-12-06T04:31:59.850Z,8.23
2022-12-06T04:34:45.696Z,9.05
2022-12-06T04:37:31.841Z,8.63
2022-12-06T04:39:59.459Z,8.63
2022-12-06T04:42:45.625Z,8.55
2022-12-06T04:45:12.915Z,9.82
2022-12-06T04:47:40.125Z,9.38
2022-12-06T04:50:07.796Z,9.88
2022-12-06T04:52:36.283Z,9.45
2022-12-06T04:55:04.825Z,9.68
2022-12-06T04:57:32.139Z,10.15
2022-12-06T04:59:59.643Z,9.05
2022-12-06T05:02:27.097Z,9.20
2022-12-06T05:04:54.518Z,10.15
2022-12-06T05:07:21.745Z,8.38
2022-12-06T05:09:49.225Z,9.65
2022-12-06T05:12:16.446Z,9.02
2022-12-06T05:14:43.683Z,8.60
2022-12-06T05:17:10.942Z,10.35
2022-12-06T05:19:38.409Z,9.90
2022-12-06T05:22:05.678Z,7.57
2022-12-06T05:24:32.899Z,8.13
2022-12-06T05:27:00.312Z,9.32
2022-12-06T05:29:27.520Z,8.88
2022-12-06T05:31:54.812Z,7.40
2022-12-06T05:34:22.054Z,8.65
2022-12-06T05:36:49.484Z,8.10
2022-12-06T05:39:17.028Z,8.25
2022-12-06T05:41:44.263Z,8.15
2022-12-06T05:44:12.329Z,8.75
2022-12-06T05:46:39.680Z,8.45
2022-12-06T05:49:07.037Z,7.32
2022-12-06T05:51:34.299Z,8.85
2022-12-06T05:54:05.224Z,8.68
2022-12-06T05:56:32.478Z,6.80
2022-12-06T05:58:59.756Z,8.73
2022-12-06T06:01:26.995Z,8.45
2022-12-06T06:03:54.248Z,8.73
2022-12-06T06:06:21.551Z,8.82
2022-12-06T06:08:48.853Z,9.50
2022-12-06T06:11:16.381Z,9.00
2022-12-06T06:13:43.610Z,7.95
2022-12-06T06:16:11.157Z,7.20
2022-12-06T06:18:38.532Z,8.55
2022-12-06T06:21:05.895Z,7.25
2022-12-06T06:23:33.572Z,9.13
2022-12-06T06:26:00.845Z,8.43
2022-12-06T06:28:28.086Z,8.60
2022-12-06T06:30:55.341Z,7.47
2022-12-06T06:33:22.569Z,8.55
2022-12-06T06:35:49.834Z,7.97
2022-12-06T06:38:17.064Z,7.85
2022-12-06T06:40:44.423Z,7.97
2022-12-06T06:43:20.960Z,6.75
2022-12-06T06:46:17.551Z,7.22
2022-12-06T06:48:44.788Z,7.18
2022-12-06T06:51:13.336Z,6.97
2022-12-06T06:53:40.626Z,7.47
2022-12-06T06:56:08.067Z,7.30
2022-12-06T06:58:35.300Z,7.28
2022-12-06T07:01:03.427Z,6.68
2022-12-06T07:03:30.682Z,7.00
2022-12-06T07:05:57.879Z,7.65
2022-12-06T07:08:25.844Z,7.65
2022-12-06T07:10:54.417Z,6.80
2022-12-06T07:13:25.821Z,7.72
2022-12-06T07:15:53.373Z,7.72
2022-12-06T07:18:21.039Z,8.55
2022-12-06T07:20:48.714Z,8.38
2022-12-06T07:23:16.687Z,8.13
2022-12-06T07:25:43.910Z,8.93
2022-12-06T07:28:11.144Z,8.07
2022-12-06T07:30:38.390Z,8.35
2022-12-06T07:33:05.713Z,8.05
2022-12-06T07:36:03.528Z,8.65
2022-12-06T07:38:20.641Z,8.38
2022-12-06T07:41:04.019Z,8.65
2022-12-06T07:43:50.792Z,8.57
2022-12-06T07:46:18.095Z,8.10
2022-12-06T07:48:45.538Z,8.20
2022-12-06T07:51:12.753Z,8.23
2022-12-06T07:53:40.027Z,8.30
2022-12-06T07:56:08.580Z,7.90
2022-12-06T07:58:35.980Z,8.43
2022-12-06T08:01:04.088Z,8.05
2022-12-06T08:03:31.483Z,7.47
2022-12-06T08:05:58.737Z,7.40
2022-12-06T08:08:28.823Z,8.60
2022-12-06T08:10:59.177Z,8.13
2022-12-06T08:13:26.590Z,8.60
2022-12-06T08:15:53.862Z,7.70
2022-12-06T08:18:21.498Z,8.70
2022-12-06T08:20:48.944Z,7.93
2022-12-06T08:23:16.204Z,8.80
2022-12-06T08:25:43.525Z,6.90
2022-12-06T08:28:10.826Z,7.22
2022-12-06T08:30:42.033Z,7.32
2022-12-06T08:33:09.374Z,7.88
2022-12-06T08:35:39.539Z,5.93
2022-12-06T08:38:06.811Z,7.03
2022-12-06T08:40:34.034Z,6.57
2022-12-06T08:43:01.521Z,6.50
2022-12-06T08:45:28.749Z,6.47
2022-12-06T08:47:56.140Z,6.53
2022-12-06T08:50:23.347Z,6.43
2022-12-06T08:52:50.744Z,6.03
2022-12-06T08:55:18.024Z,6.13
2022-12-06T08:57:45.437Z,9.23
2022-12-06T09:00:13.057Z,6.90
2022-12-06T09:02:41.012Z,6.88
2022-12-06T09:05:08.933Z,6.05
2022-12-06T09:07:36.266Z,7.13
2022-12-06T09:10:03.677Z,5.35
2022-12-06T09:12:30.917Z,5.93
2022-12-06T09:14:58.171Z,6.30
2022-12-06T09:17:25.385Z,5.97
2022-12-06T09:19:52.635Z,6.13
2022-12-06T09:22:19.889Z,6.07
2022-12-06T09:24:47.305Z,5.82
2022-12-06T09:27:14.551Z,6.18
2022-12-06T09:29:41.779Z,6.40
2022-12-06T09:32:09.039Z,6.38
2022-12-06T09:34:36.266Z,6.15
2022-12-06T09:37:05.516Z,6.78
2022-12-06T09:39:35.402Z,6.13
2022-12-06T09:42:20.763Z,10.50
2022-12-06T09:44:48.105Z,7.03
2022-12-06T09:47:28.189Z,7.57
2022-12-06T09:49:58.810Z,5.80
2022-12-06T09:52:29.017Z,6.38
2022-12-06T09:55:22.406Z,5.97
2022-12-06T09:58:08.523Z,6.20
2022-12-06T10:00:47.078Z,6.28
2022-12-06T10:03:33.017Z,5.35
2022-12-06T10:06:03.012Z,5.55
2022-12-06T10:08:48.831Z,5.82
2022-12-06T10:11:16.539Z,5.55
2022-12-06T10:13:57.727Z,6.00
2022-12-06T10:16:45.300Z,5.75
2022-12-06T10:19:27.650Z,6.45
2022-12-06T10:22:13.935Z,5.70
2022-12-06T10:24:44.178Z,5.95
2022-12-06T10:27:12.909Z,6.40
2022-12-06T10:29:48.525Z,5.40
2022-12-06T10:32:21.700Z,5.70
2022-12-06T10:34:59.649Z,6.53
2022-12-06T10:37:44.121Z,6.45
2022-12-06T10:40:21.897Z,5.47
2022-12-06T10:42:49.199Z,6.10
2022-12-06T10:45:51.030Z,5.28
2022-12-06T10:48:30.010Z,6.07
2022-12-06T10:51:02.640Z,5.60
2022-12-06T10:53:32.751Z,6.13
2022-12-06T10:56:03.236Z,5.60
2022-12-06T10:58:39.745Z,5.97
2022-12-06T11:01:13.129Z,6.40
2022-12-06T11:03:43.574Z,6.18
2022-12-06T11:06:16.409Z,5.68
2022-12-06T11:08:49.835Z,5.45
2022-12-06T11:11:18.659Z,6.03
2022-12-06T11:13:50.851Z,7.10
2022-12-06T11:16:23.947Z,6.45
2022-12-06T11:18:51.502Z,5.85
2022-12-06T11:21:28.857Z,6.20
2022-12-06T11:24:08.689Z,5.97
2022-12-06T11:26:39.170Z,5.90
2022-12-06T11:29:10.998Z,7.75
2022-12-06T11:31:43.943Z,7.90
2022-12-06T11:34:25.059Z,9.80
2022-12-06T11:36:59.598Z,15.82
2022-12-06T11:41:56.320Z,10.43
2022-12-06T11:44:25.774Z,10.95
2022-12-06T11:46:56.435Z,10.27
2022-12-06T11:49:43.983Z,10.98
2022-12-06T11:52:34.497Z,9.70
2022-12-06T11:55:04.161Z,10.98
2022-12-06T11:57:33.966Z,9.77
2022-12-06T12:00:21.632Z,10.65
2022-12-06T12:02:49.942Z,10.90
2022-12-06T12:05:17.208Z,9.75
2022-12-06T12:07:46.050Z,11.30
2022-12-06T12:10:28.296Z,9.02
2022-12-06T12:13:15.420Z,8.30
2022-12-06T12:15:50.770Z,8.55
2022-12-06T12:20:46.499Z,7.00
2022-12-06T12:23:22.497Z,7.28
2022-12-06T12:26:02.071Z,7.53
2022-12-06T12:28:31.240Z,7.43
2022-12-06T12:30:59.793Z,7.90
2022-12-06T12:33:28.434Z,7.75
2022-12-06T12:35:57.585Z,8.20
2022-12-06T12:38:24.861Z,7.25
2022-12-06T12:40:57.153Z,6.47
2022-12-06T12:43:25.961Z,6.55
2022-12-06T12:46:11.302Z,6.88
2022-12-06T12:48:39.550Z,7.07
2022-12-06T12:51:20.127Z,6.60
2022-12-06T12:53:49.445Z,6.93
2022-12-06T12:56:21.288Z,6.78
2022-12-06T12:58:49.764Z,6.82
2022-12-06T13:01:26.434Z,6.57
2022-12-06T13:03:57.181Z,5.88
2022-12-06T13:06:34.085Z,5.90
2022-12-06T13:09:03.682Z,6.22
2022-12-06T13:11:32.405Z,6.43
2022-12-06T13:14:00.758Z,7.85
2022-12-06T13:16:33.324Z,6.40
2022-12-06T13:19:01.294Z,7.78
2022-12-06T13:21:46.874Z,6.47
2022-12-06T13:24:26.014Z,6.10
2022-12-06T13:26:57.230Z,8.88
2022-12-06T13:29:24.563Z,6.20
2022-12-06T13:31:52.851Z,6.05
2022-12-06T13:34:22.976Z,6.30
2022-12-06T13:36:52.362Z,6.18
2022-12-06T13:39:40.027Z,6.18
2022-12-06T13:42:23.031Z,8.30
2022-12-06T13:44:54.901Z,10.52
2022-12-06T13:47:28.132Z,7.75
2022-12-06T13:49:57.068Z,8.73
2022-12-06T13:52:42.768Z,7.38
2022-12-06T13:57:41.636Z,8.48
2022-12-06T14:00:27.720Z,9.07
2022-12-06T14:03:03.197Z,7.88
2022-12-06T14:10:43.751Z,6.20
2022-12-06T14:13:18.382Z,8.02
2022-12-06T14:15:47.090Z,9.38
2022-12-06T14:18:22.372Z,7.55
2022-12-06T14:23:43.134Z,6.50
2022-12-06T14:26:13.993Z,6.78
2022-12-06T14:28:42.013Z,7.03
2022-12-06T14:31:18.942Z,7.60
2022-12-06T14:33:46.551Z,6.45
2022-12-06T14:36:43.188Z,7.90
2022-12-06T14:39:13.277Z,6.93
2022-12-06T14:41:59.300Z,7.78
2022-12-06T14:44:31.484Z,7.82
2022-12-06T14:46:59.294Z,8.57
2022-12-06T14:49:46.447Z,7.85
2022-12-06T14:52:17.676Z,7.57
2022-12-06T14:54:45.504Z,7.55
2022-12-06T14:57:21.438Z,6.63
2022-12-06T15:02:41.727Z,7.43
2022-12-06T15:05:27.755Z,7.45
2022-12-06T15:07:55.044Z,7.55
2022-12-06T15:10:32.329Z,9.00
2022-12-06T15:13:15.314Z,6.63
2022-12-06T15:15:45.299Z,6.30
2022-12-06T15:18:14.857Z,15.18
2022-12-06T15:20:42.160Z,34.08
2022-12-06T15:23:19.744Z,18.25
2022-12-06T15:25:46.988Z,7.25
2022-12-06T15:28:18.410Z,6.68
2022-12-06T15:30:47.213Z,6.95
2022-12-06T15:33:24.424Z,7.30
2022-12-06T15:35:52.200Z,6.97
2022-12-06T15:38:19.503Z,7.95
2022-12-06T15:40:49.049Z,16.45
2022-12-06T15:43:19.166Z,8.85
2022-12-06T15:45:46.432Z,7.28
2022-12-06T15:48:13.713Z,6.05
2022-12-06T15:50:40.976Z,6.65
2022-12-06T15:53:08.299Z,7.25
2022-12-06T15:55:35.533Z,6.35
2022-12-06T15:58:02.792Z,6.93
2022-12-06T16:00:30.024Z,6.25
2022-12-06T16:02:57.455Z,6.15
2022-12-06T16:05:24.780Z,6.00
2022-12-06T16:07:52.085Z,6.00
2022-12-06T16:10:22.316Z,6.82
2022-12-06T16:13:09.192Z,5.65
2022-12-06T16:15:36.457Z,5.40
2022-12-06T16:18:03.985Z,6.45
2022-12-06T16:20:31.275Z,6.60
2022-12-06T16:23:18.056Z,7.45
2022-12-06T16:25:45.467Z,5.93
2022-12-06T16:28:13.378Z,6.65
2022-12-06T16:30:41.320Z,7.82
2022-12-06T16:33:08.923Z,8.38
2022-12-06T16:35:36.202Z,10.20
2022-12-06T16:38:03.434Z,10.43
2022-12-06T16:40:30.699Z,10.43
2022-12-06T16:42:57.922Z,14.60
2022-12-06T16:45:25.120Z,14.35
2022-12-06T16:47:52.563Z,12.73
2022-12-06T16:50:24.980Z,13.55
2022-12-06T16:52:52.436Z,13.60
2022-12-06T16:55:19.702Z,12.77
2022-12-06T16:57:47.041Z,12.55
2022-12-06T17:00:15.043Z,15.00
2022-12-06T17:02:44.539Z,12.45
2022-12-06T17:05:17.294Z,14.38
2022-12-06T17:07:44.683Z,13.68
2022-12-06T17:10:12.614Z,13.70
2022-12-06T17:12:40.686Z,13.13
2022-12-06T17:15:08.257Z,15.05
2022-12-06T17:17:35.649Z,13.90
2022-12-06T17:20:03.213Z,15.02
2022-12-06T17:22:30.481Z,13.50
2022-12-06T17:24:57.758Z,14.32
2022-12-06T17:27:24.970Z,14.32
2022-12-06T17:29:52.328Z,13.70
2022-12-06T17:32:20.625Z,11.70
2022-12-06T17:34:48.088Z,10.82
2022-12-06T17:37:15.359Z,9.30
2022-12-06T17:39:43.985Z,9.38
2022-12-06T17:42:47.464Z,10.38
2022-12-06T17:45:14.768Z,10.25
2022-12-06T17:47:42.088Z,9.05
2022-12-06T17:50:09.703Z,10.18
2022-12-06T17:52:36.924Z,9.52
2022-12-06T17:55:04.693Z,9.20
2022-12-06T17:57:32.639Z,9.35
2022-12-06T17:59:59.877Z,10.32
2022-12-06T18:02:27.252Z,9.75
2022-12-06T18:04:56.427Z,9.45
2022-12-06T18:07:23.658Z,6.90
2022-12-06T18:09:51.255Z,9.45
2022-12-06T18:12:19.075Z,10.40
2022-12-06T18:14:46.709Z,6.88
2022-12-06T18:17:13.951Z,8.45
2022-12-06T18:19:41.258Z,7.93
2022-12-06T18:22:08.508Z,7.90
2022-12-06T18:24:36.504Z,8.75
2022-12-06T18:27:05.067Z,9.15
2022-12-06T18:29:32.593Z,10.73
2022-12-06T18:32:00.019Z,10.48
2022-12-06T18:34:27.327Z,9.93
2022-12-06T18:36:54.569Z,10.00
2022-12-06T18:39:25.032Z,11.25
2022-12-06T18:41:53.104Z,10.55
2022-12-06T18:44:20.404Z,10.40
2022-12-06T18:46:47.629Z,10.40
2022-12-06T18:49:15.370Z,9.55
2022-12-06T18:51:42.784Z,9.73
2022-12-06T18:54:11.369Z,10.02
2022-12-06T18:56:39.669Z,10.55
2022-12-06T18:59:07.688Z,10.90
2022-12-06T19:01:36.351Z,12.27
2022-12-06T19:04:04.517Z,13.15
2022-12-06T19:06:33.705Z,13.32
2022-12-06T19:09:02.979Z,11.52
2022-12-06T19:11:30.204Z,11.98
2022-12-06T19:13:58.450Z,11.25
2022-12-06T19:16:30.287Z,11.32
2022-12-06T19:18:58.697Z,13.45
2022-12-06T19:21:26.290Z,11.77
2022-12-06T19:23:54.658Z,11.40
2022-12-06T19:26:22.345Z,12.85
2022-12-06T19:28:49.645Z,10.73
2022-12-06T19:31:17.060Z,10.80
2022-12-06T19:33:46.329Z,11.77
2022-12-06T19:36:18.216Z,11.73
2022-12-06T19:38:45.483Z,12.00
2022-12-06T19:41:15.100Z,12.95
2022-12-06T19:44:01.262Z,11.68
2022-12-06T19:46:29.471Z,12.13
2022-12-06T19:48:57.842Z,12.02
2022-12-06T19:51:28.304Z,11.45
2022-12-06T19:53:57.927Z,12.40
2022-12-06T19:56:26.128Z,13.65
2022-12-06T19:58:54.652Z,14.50
2022-12-06T20:01:23.771Z,14.93
2022-12-06T20:03:51.397Z,12.15
2022-12-06T20:06:20.000Z,12.48
2022-12-06T20:08:47.767Z,11.85
2022-12-06T20:11:35.193Z,12.50
2022-12-06T20:14:03.224Z,12.55
2022-12-06T20:16:30.525Z,13.00
2022-12-06T20:18:57.861Z,13.80
2022-12-06T20:21:25.192Z,12.52
2022-12-06T20:23:53.973Z,12.13
2022-12-06T20:26:21.316Z,12.25
2022-12-06T20:28:48.694Z,12.40
2022-12-06T20:31:20.599Z,12.02
2022-12-06T20:33:48.226Z,13.45
2022-12-06T20:36:16.609Z,13.02
2022-12-06T20:38:43.998Z,12.50
2022-12-06T20:41:12.372Z,12.70
2022-12-06T20:43:40.127Z,12.95
2022-12-06T20:46:14.568Z,12.38
2022-12-06T20:48:42.913Z,12.73
2022-12-06T20:51:11.551Z,12.50
2022-12-06T20:53:38.804Z,13.30
2022-12-06T20:56:10.368Z,13.32
2022-12-06T20:58:37.653Z,14.18
2022-12-06T21:01:05.804Z,13.07
2022-12-06T21:03:33.511Z,12.05
2022-12-06T21:06:04.782Z,11.93
2022-12-06T21:08:32.034Z,12.05
2022-12-06T21:11:22.055Z,11.70
2022-12-06T21:13:47.127Z,12.30
2022-12-06T21:16:15.942Z,11.90
2022-12-06T21:18:43.513Z,10.77
2022-12-06T21:21:11.313Z,11.32
2022-12-06T21:23:39.515Z,11.73
2022-12-06T21:26:07.106Z,11.45
2022-12-06T21:28:34.492Z,11.57
2022-12-06T21:31:01.741Z,10.85
2022-12-06T21:33:29.158Z,11.20
2022-12-06T21:35:56.377Z,10.45
2022-12-06T21:38:23.607Z,10.60
2022-12-06T21:40:55.404Z,10.60
2022-12-06T21:43:24.751Z,11.07
2022-12-06T21:45:51.998Z,11.20
2022-12-06T21:48:19.405Z,10.10
2022-12-06T21:50:46.611Z,10.52
2022-12-06T21:53:13.845Z,8.95
2022-12-06T21:55:41.221Z,10.15
2022-12-06T21:58:08.974Z,10.80
2022-12-06T22:00:36.186Z,9.55
2022-12-06T22:03:03.572Z,10.25
2022-12-06T22:05:30.804Z,10.23
2022-12-06T22:07:58.072Z,11.23
2022-12-06T22:10:25.346Z,10.75
2022-12-06T22:12:52.568Z,9.82
2022-12-06T22:15:19.799Z,9.73
2022-12-06T22:17:47.020Z,10.60
2022-12-06T22:20:14.243Z,9.52
2022-12-06T22:22:41.473Z,9.88
2022-12-06T22:25:09.301Z,10.63
2022-12-06T22:27:36.545Z,10.25
2022-12-06T22:30:04.104Z,9.93
2022-12-06T22:32:33.767Z,9.90
2022-12-06T22:35:01.159Z,9.73
2022-12-06T22:37:28.729Z,10.40
2022-12-06T22:39:56.027Z,11.10
2022-12-06T22:42:23.244Z,10.45
2022-12-06T22:44:50.629Z,11.93
2022-12-06T22:47:17.989Z,10.02
2022-12-06T22:49:45.420Z,10.68
2022-12-06T22:52:12.628Z,10.15
2022-12-06T22:54:39.852Z,10.85
2022-12-06T22:57:07.070Z,10.68
2022-12-06T22:59:34.345Z,11.30
2022-12-06T23:02:01.741Z,11.15
2022-12-06T23:04:29.184Z,11.13
2022-12-06T23:06:56.379Z,12.05
2022-12-06T23:09:23.865Z,11.90
2022-12-06T23:11:51.089Z,11.85
2022-12-06T23:14:18.590Z,10.32
2022-12-06T23:16:46.230Z,11.10
2022-12-06T23:19:13.619Z,11.82
2022-12-06T23:21:42.722Z,11.50
2022-12-06T23:24:11.608Z,12.07
2022-12-06T23:26:40.375Z,10.98
2022-12-06T23:29:07.864Z,10.85
2022-12-06T23:31:36.597Z,11.00
2022-12-06T23:34:09.142Z,12.23
2022-12-06T23:36:36.574Z,10.65
2022-12-06T23:39:04.863Z,11.30
2022-12-06T23:41:33.035Z,11.48
2022-12-06T23:44:00.734Z,11.10
2022-12-06T23:46:29.455Z,9.80
2022-12-06T23:48:57.093Z,11.32
2022-12-06T23:51:25.626Z,11.80
2022-12-06T23:53:57.573Z,12.55
2022-12-06T23:56:25.582Z,11.70
2022-12-06T23:58:53.117Z,12.35
